sensor_id;sensor_type;location;lat;lon;timestamp;pressure;altitude;pressure_sealevel;temperature;humidity
64253;BME280;50592;52.958;-7.470;2023-09-08T00:01:50;100477.19;;;20.33;100.00
64253;BME280;50592;52.958;-7.470;2023-09-08T00:04:16;100478.59;;;20.36;100.00
64253;BME280;50592;52.958;-7.470;2023-09-08T00:06:42;100481.91;;;20.31;100.00
64253;BME280;50592;52.958;-7.470;2023-09-08T00:09:08;100485.84;;;20.22;100.00
64253;BME280;50592;52.958;-7.470;2023-09-08T00:11:33;100482.38;;;20.14;100.00
64253;BME280;50592;52.958;-7.470;2023-09-08T00:13:59;100477.00;;;20.07;100.00
64253;BME280;50592;52.958;-7.470;2023-09-08T00:16:25;100484.84;;;20.09;100.00
64253;BME280;50592;52.958;-7.470;2023-09-08T00:18:50;100479.25;;;20.11;100.00
64253;BME280;50592;52.958;-7.470;2023-09-08T00:21:16;100476.16;;;20.14;100.00
64253;BME280;50592;52.958;-7.470;2023-09-08T00:23:42;100468.09;;;20.07;100.00
64253;BME280;50592;52.958;-7.470;2023-09-08T00:26:07;100467.50;;;20.05;100.00
64253;BME280;50592;52.958;-7.470;2023-09-08T00:28:34;100465.22;;;20.02;100.00
64253;BME280;50592;52.958;-7.470;2023-09-08T00:31:00;100480.28;;;20.03;100.00
64253;BME280;50592;52.958;-7.470;2023-09-08T00:33:27;100471.22;;;20.04;100.00
64253;BME280;50592;52.958;-7.470;2023-09-08T00:35:53;100471.63;;;20.07;100.00
64253;BME280;50592;52.958;-7.470;2023-09-08T00:38:19;100473.91;;;20.11;100.00
64253;BME280;50592;52.958;-7.470;2023-09-08T00:40:45;100474.53;;;20.13;100.00
64253;BME280;50592;52.958;-7.470;2023-09-08T00:43:11;100480.50;;;20.15;100.00
64253;BME280;50592;52.958;-7.470;2023-09-08T00:45:41;100476.59;;;20.17;100.00
64253;BME280;50592;52.958;-7.470;2023-09-08T00:48:07;100484.41;;;20.05;100.00
64253;BME280;50592;52.958;-7.470;2023-09-08T00:50:34;100482.75;;;19.98;100.00
64253;BME280;50592;52.958;-7.470;2023-09-08T00:53:01;100472.19;;;19.89;100.00
64253;BME280;50592;52.958;-7.470;2023-09-08T00:55:27;100473.88;;;19.83;100.00
64253;BME280;50592;52.958;-7.470;2023-09-08T00:57:53;100478.38;;;19.83;100.00
64253;BME280;50592;52.958;-7.470;2023-09-08T01:00:19;100484.38;;;19.85;100.00
64253;BME280;50592;52.958;-7.470;2023-09-08T01:02:45;100473.25;;;19.88;100.00
64253;BME280;50592;52.958;-7.470;2023-09-08T01:05:11;100476.97;;;19.87;100.00
64253;BME280;50592;52.958;-7.470;2023-09-08T01:07:40;100484.81;;;19.89;100.00
64253;BME280;50592;52.958;-7.470;2023-09-08T01:10:06;100479.44;;;19.89;100.00
64253;BME280;50592;52.958;-7.470;2023-09-08T01:12:33;100476.56;;;19.90;100.00
64253;BME280;50592;52.958;-7.470;2023-09-08T01:15:01;100471.78;;;19.92;100.00
64253;BME280;50592;52.958;-7.470;2023-09-08T01:17:27;100477.78;;;19.94;100.00
64253;BME280;50592;52.958;-7.470;2023-09-08T01:19:55;100476.75;;;19.89;100.00
64253;BME280;50592;52.958;-7.470;2023-09-08T01:27:41;100472.78;;;19.44;100.00
64253;BME280;50592;52.958;-7.470;2023-09-08T01:30:09;100469.44;;;19.28;100.00
64253;BME280;50592;52.958;-7.470;2023-09-08T01:32:36;100467.56;;;19.15;100.00
64253;BME280;50592;52.958;-7.470;2023-09-08T01:35:02;100468.72;;;19.06;100.00
64253;BME280;50592;52.958;-7.470;2023-09-08T01:37:29;100466.44;;;19.03;100.00
64253;BME280;50592;52.958;-7.470;2023-09-08T01:39:54;100469.13;;;19.03;100.00
64253;BME280;50592;52.958;-7.470;2023-09-08T01:42:20;100472.41;;;19.05;100.00
64253;BME280;50592;52.958;-7.470;2023-09-08T01:44:46;100466.25;;;19.04;100.00
64253;BME280;50592;52.958;-7.470;2023-09-08T01:47:12;100457.81;;;19.07;100.00
64253;BME280;50592;52.958;-7.470;2023-09-08T01:49:37;100460.06;;;19.04;100.00
64253;BME280;50592;52.958;-7.470;2023-09-08T01:52:03;100452.19;;;18.95;100.00
64253;BME280;50592;52.958;-7.470;2023-09-08T01:54:29;100468.00;;;18.83;100.00
64253;BME280;50592;52.958;-7.470;2023-09-08T01:56:55;100455.81;;;18.74;100.00
64253;BME280;50592;52.958;-7.470;2023-09-08T01:59:21;100463.56;;;18.62;100.00
64253;BME280;50592;52.958;-7.470;2023-09-08T02:01:47;100471.94;;;18.52;100.00
64253;BME280;50592;52.958;-7.470;2023-09-08T02:04:12;100458.09;;;18.42;100.00
64253;BME280;50592;52.958;-7.470;2023-09-08T02:06:38;100468.75;;;18.35;100.00
64253;BME280;50592;52.958;-7.470;2023-09-08T02:09:04;100473.91;;;18.37;100.00
64253;BME280;50592;52.958;-7.470;2023-09-08T02:11:31;100481.78;;;18.45;100.00
64253;BME280;50592;52.958;-7.470;2023-09-08T02:13:57;100486.56;;;18.50;100.00
64253;BME280;50592;52.958;-7.470;2023-09-08T02:16:23;100483.50;;;18.53;100.00
64253;BME280;50592;52.958;-7.470;2023-09-08T02:18:50;100482.66;;;18.52;100.00
64253;BME280;50592;52.958;-7.470;2023-09-08T02:21:16;100476.28;;;18.53;100.00
64253;BME280;50592;52.958;-7.470;2023-09-08T02:23:42;100480.03;;;18.59;100.00
64253;BME280;50592;52.958;-7.470;2023-09-08T02:26:07;100481.72;;;18.67;100.00
64253;BME280;50592;52.958;-7.470;2023-09-08T02:28:33;100473.72;;;18.74;100.00
64253;BME280;50592;52.958;-7.470;2023-09-08T02:30:59;100474.34;;;18.76;100.00
64253;BME280;50592;52.958;-7.470;2023-09-08T02:33:25;100476.78;;;18.70;100.00
64253;BME280;50592;52.958;-7.470;2023-09-08T02:35:51;100469.91;;;18.54;100.00
64253;BME280;50592;52.958;-7.470;2023-09-08T02:38:18;100477.22;;;18.39;100.00
64253;BME280;50592;52.958;-7.470;2023-09-08T02:40:44;100482.31;;;18.27;100.00
64253;BME280;50592;52.958;-7.470;2023-09-08T02:43:11;100473.59;;;18.18;100.00
64253;BME280;50592;52.958;-7.470;2023-09-08T02:45:37;100472.22;;;18.07;100.00
64253;BME280;50592;52.958;-7.470;2023-09-08T02:48:03;100473.19;;;17.99;100.00
64253;BME280;50592;52.958;-7.470;2023-09-08T02:50:30;100467.03;;;17.98;100.00
64253;BME280;50592;52.958;-7.470;2023-09-08T02:52:55;100462.50;;;17.99;100.00
64253;BME280;50592;52.958;-7.470;2023-09-08T02:55:21;100458.00;;;18.00;100.00
64253;BME280;50592;52.958;-7.470;2023-09-08T02:57:47;100471.59;;;18.05;100.00
64253;BME280;50592;52.958;-7.470;2023-09-08T03:00:13;100473.50;;;18.11;100.00
64253;BME280;50592;52.958;-7.470;2023-09-08T03:02:39;100468.88;;;18.20;100.00
64253;BME280;50592;52.958;-7.470;2023-09-08T03:05:06;100472.84;;;18.31;100.00
64253;BME280;50592;52.958;-7.470;2023-09-08T03:07:31;100467.94;;;18.34;100.00
64253;BME280;50592;52.958;-7.470;2023-09-08T03:09:59;100469.78;;;18.34;100.00
64253;BME280;50592;52.958;-7.470;2023-09-08T03:12:25;100467.31;;;18.32;100.00
64253;BME280;50592;52.958;-7.470;2023-09-08T03:14:51;100472.47;;;18.34;100.00
64253;BME280;50592;52.958;-7.470;2023-09-08T03:17:17;100473.72;;;18.38;100.00
64253;BME280;50592;52.958;-7.470;2023-09-08T03:19:46;100462.66;;;18.48;100.00
64253;BME280;50592;52.958;-7.470;2023-09-08T03:22:12;100460.81;;;18.49;100.00
64253;BME280;50592;52.958;-7.470;2023-09-08T03:24:38;100450.66;;;18.37;100.00
64253;BME280;50592;52.958;-7.470;2023-09-08T03:27:04;100459.72;;;18.36;100.00
64253;BME280;50592;52.958;-7.470;2023-09-08T03:29:29;100457.63;;;18.31;100.00
64253;BME280;50592;52.958;-7.470;2023-09-08T03:31:55;100467.31;;;18.32;100.00
64253;BME280;50592;52.958;-7.470;2023-09-08T03:34:22;100465.06;;;18.36;100.00
64253;BME280;50592;52.958;-7.470;2023-09-08T03:36:49;100456.84;;;18.38;100.00
64253;BME280;50592;52.958;-7.470;2023-09-08T03:39:16;100455.38;;;18.35;100.00
64253;BME280;50592;52.958;-7.470;2023-09-08T03:41:42;100459.28;;;18.32;100.00
64253;BME280;50592;52.958;-7.470;2023-09-08T03:44:08;100466.66;;;18.30;100.00
64253;BME280;50592;52.958;-7.470;2023-09-08T03:46:34;100460.91;;;18.33;100.00
64253;BME280;50592;52.958;-7.470;2023-09-08T03:49:01;100458.69;;;18.37;100.00
64253;BME280;50592;52.958;-7.470;2023-09-08T03:51:27;100457.25;;;18.41;100.00
64253;BME280;50592;52.958;-7.470;2023-09-08T03:53:54;100462.22;;;18.44;100.00
64253;BME280;50592;52.958;-7.470;2023-09-08T03:56:20;100462.63;;;18.41;100.00
64253;BME280;50592;52.958;-7.470;2023-09-08T03:58:48;100464.88;;;18.38;100.00
64253;BME280;50592;52.958;-7.470;2023-09-08T04:01:14;100463.78;;;18.32;100.00
64253;BME280;50592;52.958;-7.470;2023-09-08T04:03:40;100469.72;;;18.27;100.00
64253;BME280;50592;52.958;-7.470;2023-09-08T04:06:06;100468.28;;;18.25;100.00
64253;BME280;50592;52.958;-7.470;2023-09-08T04:08:32;100467.25;;;18.26;100.00
64253;BME280;50592;52.958;-7.470;2023-09-08T04:10:58;100470.56;;;18.28;100.00
64253;BME280;50592;52.958;-7.470;2023-09-08T04:13:25;100470.38;;;18.29;100.00
64253;BME280;50592;52.958;-7.470;2023-09-08T04:15:51;100474.69;;;18.30;100.00
64253;BME280;50592;52.958;-7.470;2023-09-08T04:18:16;100478.47;;;18.36;100.00
64253;BME280;50592;52.958;-7.470;2023-09-08T04:20:43;100469.84;;;18.41;100.00
64253;BME280;50592;52.958;-7.470;2023-09-08T04:23:09;100465.72;;;18.45;100.00
64253;BME280;50592;52.958;-7.470;2023-09-08T04:25:35;100469.47;;;18.51;100.00
64253;BME280;50592;52.958;-7.470;2023-09-08T04:28:02;100462.06;;;18.53;100.00
64253;BME280;50592;52.958;-7.470;2023-09-08T04:30:28;100466.44;;;18.54;100.00
64253;BME280;50592;52.958;-7.470;2023-09-08T04:32:54;100467.88;;;18.56;100.00
64253;BME280;50592;52.958;-7.470;2023-09-08T04:35:20;100460.03;;;18.55;100.00
64253;BME280;50592;52.958;-7.470;2023-09-08T04:37:45;100466.03;;;18.57;100.00
64253;BME280;50592;52.958;-7.470;2023-09-08T04:40:11;100471.94;;;18.52;100.00
64253;BME280;50592;52.958;-7.470;2023-09-08T04:42:37;100471.53;;;18.49;100.00
64253;BME280;50592;52.958;-7.470;2023-09-08T04:45:05;100477.69;;;18.49;100.00
64253;BME280;50592;52.958;-7.470;2023-09-08T04:47:32;100476.44;;;18.45;100.00
64253;BME280;50592;52.958;-7.470;2023-09-08T04:49:58;100476.25;;;18.46;100.00
64253;BME280;50592;52.958;-7.470;2023-09-08T04:52:24;100474.22;;;18.49;100.00
64253;BME280;50592;52.958;-7.470;2023-09-08T04:54:50;100469.06;;;18.47;100.00
64253;BME280;50592;52.958;-7.470;2023-09-08T04:57:16;100463.50;;;18.49;100.00
64253;BME280;50592;52.958;-7.470;2023-09-08T04:59:42;100471.34;;;18.50;100.00
64253;BME280;50592;52.958;-7.470;2023-09-08T05:02:09;100475.84;;;18.50;100.00
64253;BME280;50592;52.958;-7.470;2023-09-08T05:04:35;100473.56;;;18.46;100.00
64253;BME280;50592;52.958;-7.470;2023-09-08T05:07:01;100471.72;;;18.47;100.00
64253;BME280;50592;52.958;-7.470;2023-09-08T05:09:27;100460.81;;;18.49;100.00
64253;BME280;50592;52.958;-7.470;2023-09-08T05:11:53;100460.19;;;18.46;100.00
64253;BME280;50592;52.958;-7.470;2023-09-08T05:14:19;100458.34;;;18.47;100.00
64253;BME280;50592;52.958;-7.470;2023-09-08T05:16:45;100465.53;;;18.46;100.00
64253;BME280;50592;52.958;-7.470;2023-09-08T05:19:12;100458.75;;;18.44;100.00
64253;BME280;50592;52.958;-7.470;2023-09-08T05:21:39;100460.78;;;18.42;100.00
64253;BME280;50592;52.958;-7.470;2023-09-08T05:24:06;100464.91;;;18.44;100.00
64253;BME280;50592;52.958;-7.470;2023-09-08T05:26:32;100471.03;;;18.38;100.00
64253;BME280;50592;52.958;-7.470;2023-09-08T05:28:58;100471.63;;;18.33;100.00
64253;BME280;50592;52.958;-7.470;2023-09-08T05:31:24;100467.69;;;18.29;100.00
64253;BME280;50592;52.958;-7.470;2023-09-08T05:33:49;100474.28;;;18.27;100.00
64253;BME280;50592;52.958;-7.470;2023-09-08T05:36:15;100477.75;;;18.27;100.00
64253;BME280;50592;52.958;-7.470;2023-09-08T05:38:41;100473.63;;;18.25;100.00
64253;BME280;50592;52.958;-7.470;2023-09-08T05:41:07;100464.56;;;18.26;100.00
64253;BME280;50592;52.958;-7.470;2023-09-08T05:43:33;100471.75;;;18.25;100.00
64253;BME280;50592;52.958;-7.470;2023-09-08T05:45:58;100471.16;;;18.23;100.00
64253;BME280;50592;52.958;-7.470;2023-09-08T05:48:24;100476.25;;;18.18;100.00
64253;BME280;50592;52.958;-7.470;2023-09-08T05:50:50;100479.72;;;18.12;100.00
64253;BME280;50592;52.958;-7.470;2023-09-08T05:53:16;100478.81;;;18.04;100.00
64253;BME280;50592;52.958;-7.470;2023-09-08T05:55:43;100474.59;;;17.95;100.00
64253;BME280;50592;52.958;-7.470;2023-09-08T05:58:08;100475.81;;;17.92;100.00
64253;BME280;50592;52.958;-7.470;2023-09-08T06:00:34;100479.53;;;17.91;100.00
64253;BME280;50592;52.958;-7.470;2023-09-08T06:03:00;100476.19;;;17.89;100.00
64253;BME280;50592;52.958;-7.470;2023-09-08T06:05:26;100479.06;;;17.88;100.00
64253;BME280;50592;52.958;-7.470;2023-09-08T06:07:53;100471.69;;;17.90;100.00
64253;BME280;50592;52.958;-7.470;2023-09-08T06:10:19;100476.19;;;17.89;100.00
64253;BME280;50592;52.958;-7.470;2023-09-08T06:12:45;100481.53;;;17.89;100.00
64253;BME280;50592;52.958;-7.470;2023-09-08T06:15:11;100475.56;;;17.87;100.00
64253;BME280;50592;52.958;-7.470;2023-09-08T06:17:37;100493.19;;;17.81;100.00
64253;BME280;50592;52.958;-7.470;2023-09-08T06:20:03;100490.97;;;17.63;100.00
64253;BME280;50592;52.958;-7.470;2023-09-08T06:22:29;100490.47;;;17.53;100.00
64253;BME280;50592;52.958;-7.470;2023-09-08T06:24:54;100496.38;;;17.48;100.00
64253;BME280;50592;52.958;-7.470;2023-09-08T06:27:20;100500.06;;;17.47;100.00
64253;BME280;50592;52.958;-7.470;2023-09-08T06:29:46;100499.41;;;17.45;100.00
64253;BME280;50592;52.958;-7.470;2023-09-08T06:32:13;100499.78;;;17.42;100.00
64253;BME280;50592;52.958;-7.470;2023-09-08T06:34:42;100505.41;;;17.47;100.00
64253;BME280;50592;52.958;-7.470;2023-09-08T06:37:09;100514.22;;;17.47;100.00
64253;BME280;50592;52.958;-7.470;2023-09-08T06:39:34;100512.84;;;17.52;100.00
64253;BME280;50592;52.958;-7.470;2023-09-08T06:42:02;100508.78;;;17.56;100.00
64253;BME280;50592;52.958;-7.470;2023-09-08T06:44:28;100516.03;;;17.62;100.00
64253;BME280;50592;52.958;-7.470;2023-09-08T06:46:53;100509.94;;;17.68;100.00
64253;BME280;50592;52.958;-7.470;2023-09-08T06:49:21;100501.53;;;17.71;100.00
64253;BME280;50592;52.958;-7.470;2023-09-08T06:51:47;100512.94;;;17.80;100.00
64253;BME280;50592;52.958;-7.470;2023-09-08T06:54:14;100505.34;;;17.84;100.00
64253;BME280;50592;52.958;-7.470;2023-09-08T06:56:43;100511.34;;;17.86;100.00
64253;BME280;50592;52.958;-7.470;2023-09-08T06:59:08;100508.28;;;17.89;100.00
64253;BME280;50592;52.958;-7.470;2023-09-08T07:01:35;100514.28;;;17.91;100.00
64253;BME280;50592;52.958;-7.470;2023-09-08T07:04:01;100520.03;;;17.95;100.00
64253;BME280;50592;52.958;-7.470;2023-09-08T07:06:27;100520.69;;;17.97;100.00
64253;BME280;50592;52.958;-7.470;2023-09-08T07:08:54;100517.25;;;18.03;100.00
64253;BME280;50592;52.958;-7.470;2023-09-08T07:11:21;100516.13;;;18.13;100.00
64253;BME280;50592;52.958;-7.470;2023-09-08T07:13:47;100517.44;;;18.23;100.00
64253;BME280;50592;52.958;-7.470;2023-09-08T07:16:13;100521.66;;;18.33;100.00
64253;BME280;50592;52.958;-7.470;2023-09-08T07:18:39;100522.91;;;18.37;100.00
64253;BME280;50592;52.958;-7.470;2023-09-08T07:21:07;100527.69;;;18.42;100.00
64253;BME280;50592;52.958;-7.470;2023-09-08T07:23:32;100529.19;;;18.51;100.00
64253;BME280;50592;52.958;-7.470;2023-09-08T07:25:58;100532.75;;;18.58;100.00
64253;BME280;50592;52.958;-7.470;2023-09-08T07:28:28;100535.25;;;18.67;100.00
64253;BME280;50592;52.958;-7.470;2023-09-08T07:31:01;100534.50;;;18.80;100.00
64253;BME280;50592;52.958;-7.470;2023-09-08T07:33:28;100534.97;;;18.83;100.00
64253;BME280;50592;52.958;-7.470;2023-09-08T07:35:54;100540.56;;;18.89;100.00
64253;BME280;50592;52.958;-7.470;2023-09-08T07:38:20;100538.28;;;18.92;100.00
64253;BME280;50592;52.958;-7.470;2023-09-08T07:40:46;100542.44;;;19.02;100.00
64253;BME280;50592;52.958;-7.470;2023-09-08T07:43:12;100541.53;;;19.09;100.00
64253;BME280;50592;52.958;-7.470;2023-09-08T07:45:37;100542.75;;;19.14;100.00
64253;BME280;50592;52.958;-7.470;2023-09-08T07:48:06;100537.63;;;19.19;100.00
64253;BME280;50592;52.958;-7.470;2023-09-08T07:50:32;100530.00;;;19.23;100.00
64253;BME280;50592;52.958;-7.470;2023-09-08T07:52:58;100529.81;;;19.24;100.00
64253;BME280;50592;52.958;-7.470;2023-09-08T07:55:24;100539.94;;;19.29;100.00
64253;BME280;50592;52.958;-7.470;2023-09-08T07:57:54;100540.75;;;19.29;100.00
64253;BME280;50592;52.958;-7.470;2023-09-08T08:00:20;100541.81;;;19.35;100.00
64253;BME280;50592;52.958;-7.470;2023-09-08T08:02:48;100545.16;;;19.44;100.00
64253;BME280;50592;52.958;-7.470;2023-09-08T08:05:15;100537.53;;;19.48;100.00
64253;BME280;50592;52.958;-7.470;2023-09-08T08:07:42;100549.13;;;19.62;100.00
64253;BME280;50592;52.958;-7.470;2023-09-08T08:10:09;100541.72;;;19.70;100.00
64253;BME280;50592;52.958;-7.470;2023-09-08T08:12:36;100537.59;;;19.81;100.00
64253;BME280;50592;52.958;-7.470;2023-09-08T08:15:02;100544.03;;;19.87;100.00
64253;BME280;50592;52.958;-7.470;2023-09-08T08:17:28;100543.00;;;19.95;100.00
64253;BME280;50592;52.958;-7.470;2023-09-08T08:19:55;100542.63;;;20.05;100.00
64253;BME280;50592;52.958;-7.470;2023-09-08T08:22:24;100540.97;;;20.11;100.00
64253;BME280;50592;52.958;-7.470;2023-09-08T08:24:50;100543.03;;;20.15;100.00
64253;BME280;50592;52.958;-7.470;2023-09-08T08:27:16;100540.38;;;20.22;100.00
64253;BME280;50592;52.958;-7.470;2023-09-08T08:29:42;100533.97;;;20.30;100.00
64253;BME280;50592;52.958;-7.470;2023-09-08T08:32:08;100542.22;;;20.35;100.00
64253;BME280;50592;52.958;-7.470;2023-09-08T08:34:33;100539.50;;;20.42;100.00
64253;BME280;50592;52.958;-7.470;2023-09-08T08:36:59;100548.41;;;20.49;100.00
64253;BME280;50592;52.958;-7.470;2023-09-08T08:39:25;100541.16;;;20.56;100.00
64253;BME280;50592;52.958;-7.470;2023-09-08T08:41:51;100544.03;;;20.62;100.00
64253;BME280;50592;52.958;-7.470;2023-09-08T08:44:17;100537.00;;;20.67;100.00
64253;BME280;50592;52.958;-7.470;2023-09-08T08:46:45;100529.78;;;20.75;100.00
64253;BME280;50592;52.958;-7.470;2023-09-08T08:49:14;100528.72;;;20.82;100.00
64253;BME280;50592;52.958;-7.470;2023-09-08T08:51:42;100527.03;;;20.88;100.00
64253;BME280;50592;52.958;-7.470;2023-09-08T08:54:11;100532.19;;;20.90;100.00
64253;BME280;50592;52.958;-7.470;2023-09-08T08:56:38;100539.66;;;20.94;100.00
64253;BME280;50592;52.958;-7.470;2023-09-08T08:59:04;100543.59;;;20.99;100.00
64253;BME280;50592;52.958;-7.470;2023-09-08T09:01:31;100537.38;;;21.05;100.00
64253;BME280;50592;52.958;-7.470;2023-09-08T09:03:57;100542.72;;;21.12;100.00
64253;BME280;50592;52.958;-7.470;2023-09-08T09:06:23;100537.31;;;21.18;100.00
64253;BME280;50592;52.958;-7.470;2023-09-08T09:08:49;100533.97;;;21.23;100.00
64253;BME280;50592;52.958;-7.470;2023-09-08T09:11:15;100535.59;;;21.31;100.00
64253;BME280;50592;52.958;-7.470;2023-09-08T09:13:41;100534.97;;;21.36;100.00
64253;BME280;50592;52.958;-7.470;2023-09-08T09:16:07;100533.50;;;21.40;100.00
64253;BME280;50592;52.958;-7.470;2023-09-08T09:18:55;100539.00;;;21.52;100.00
64253;BME280;50592;52.958;-7.470;2023-09-08T09:21:21;100536.94;;;21.54;100.00
64253;BME280;50592;52.958;-7.470;2023-09-08T09:23:48;100537.91;;;21.60;100.00
64253;BME280;50592;52.958;-7.470;2023-09-08T09:26:23;100537.69;;;21.68;100.00
64253;BME280;50592;52.958;-7.470;2023-09-08T09:28:49;100537.69;;;21.68;100.00
64253;BME280;50592;52.958;-7.470;2023-09-08T09:31:18;100534.13;;;21.74;100.00
64253;BME280;50592;52.958;-7.470;2023-09-08T09:33:44;100540.09;;;21.83;100.00
64253;BME280;50592;52.958;-7.470;2023-09-08T09:36:20;100538.56;;;21.94;100.00
64253;BME280;50592;52.958;-7.470;2023-09-08T09:38:47;100533.59;;;21.98;100.00
64253;BME280;50592;52.958;-7.470;2023-09-08T09:41:13;100539.97;;;22.03;100.00
64253;BME280;50592;52.958;-7.470;2023-09-08T09:43:38;100543.41;;;22.11;100.00
64253;BME280;50592;52.958;-7.470;2023-09-08T09:46:07;100541.28;;;22.20;100.00
64253;BME280;50592;52.958;-7.470;2023-09-08T09:48:35;100545.34;;;22.29;100.00
64253;BME280;50592;52.958;-7.470;2023-09-08T09:51:17;100532.41;;;22.38;100.00
64253;BME280;50592;52.958;-7.470;2023-09-08T09:53:45;100536.31;;;22.42;100.00
64253;BME280;50592;52.958;-7.470;2023-09-08T09:56:11;100536.84;;;22.51;100.00
64253;BME280;50592;52.958;-7.470;2023-09-08T09:58:37;100537.25;;;22.54;100.00
64253;BME280;50592;52.958;-7.470;2023-09-08T10:01:04;100534.53;;;22.61;100.00
64253;BME280;50592;52.958;-7.470;2023-09-08T10:03:31;100527.25;;;22.62;100.00
64253;BME280;50592;52.958;-7.470;2023-09-08T10:05:59;100528.91;;;22.63;100.00
64253;BME280;50592;52.958;-7.470;2023-09-08T10:08:25;100535.72;;;22.65;100.00
64253;BME280;50592;52.958;-7.470;2023-09-08T10:10:51;100540.81;;;22.74;100.00
64253;BME280;50592;52.958;-7.470;2023-09-08T10:13:27;100547.50;;;22.90;100.00
64253;BME280;50592;52.958;-7.470;2023-09-08T10:15:57;100548.66;;;22.94;100.00
64253;BME280;50592;52.958;-7.470;2023-09-08T10:18:24;100544.69;;;22.97;100.00
64253;BME280;50592;52.958;-7.470;2023-09-08T10:20:52;100546.28;;;23.04;100.00
64253;BME280;50592;52.958;-7.470;2023-09-08T10:23:24;100549.41;;;23.20;100.00
64253;BME280;50592;52.958;-7.470;2023-09-08T10:25:57;100549.31;;;23.27;100.00
64253;BME280;50592;52.958;-7.470;2023-09-08T10:28:26;100547.38;;;23.34;100.00
64253;BME280;50592;52.958;-7.470;2023-09-08T10:30:52;100546.91;;;23.37;100.00
64253;BME280;50592;52.958;-7.470;2023-09-08T10:33:19;100544.75;;;23.46;100.00
64253;BME280;50592;52.958;-7.470;2023-09-08T10:35:46;100544.28;;;23.49;100.00
64253;BME280;50592;52.958;-7.470;2023-09-08T10:38:25;100549.00;;;23.54;100.00
64253;BME280;50592;52.958;-7.470;2023-09-08T10:40:52;100549.38;;;23.58;100.00
64253;BME280;50592;52.958;-7.470;2023-09-08T10:43:19;100540.00;;;23.60;100.00
64253;BME280;50592;52.958;-7.470;2023-09-08T10:45:46;100545.66;;;23.71;100.00
64253;BME280;50592;52.958;-7.470;2023-09-08T10:48:13;100541.44;;;23.75;100.00
64253;BME280;50592;52.958;-7.470;2023-09-08T10:50:41;100546.88;;;23.87;100.00
64253;BME280;50592;52.958;-7.470;2023-09-08T10:53:18;100538.69;;;23.94;100.00
64253;BME280;50592;52.958;-7.470;2023-09-08T10:55:46;100545.25;;;23.98;100.00
64253;BME280;50592;52.958;-7.470;2023-09-08T10:58:19;100543.25;;;24.05;100.00
64253;BME280;50592;52.958;-7.470;2023-09-08T11:00:47;100537.31;;;24.15;100.00
64253;BME280;50592;52.958;-7.470;2023-09-08T11:03:26;100542.63;;;24.22;100.00
64253;BME280;50592;52.958;-7.470;2023-09-08T11:05:53;100534.50;;;24.22;100.00
64253;BME280;50592;52.958;-7.470;2023-09-08T11:08:19;100537.34;;;24.27;100.00
64253;BME280;50592;52.958;-7.470;2023-09-08T11:10:45;100539.91;;;24.34;100.00
64253;BME280;50592;52.958;-7.470;2023-09-08T11:13:11;100536.25;;;24.40;100.00
64253;BME280;50592;52.958;-7.470;2023-09-08T11:15:37;100535.91;;;24.48;100.00
64253;BME280;50592;52.958;-7.470;2023-09-08T11:18:06;100526.16;;;24.59;100.00
64253;BME280;50592;52.958;-7.470;2023-09-08T11:20:34;100532.50;;;24.65;100.00
64253;BME280;50592;52.958;-7.470;2023-09-08T11:23:00;100516.38;;;24.70;100.00
64253;BME280;50592;52.958;-7.470;2023-09-08T11:25:26;100521.53;;;24.84;100.00
64253;BME280;50592;52.958;-7.470;2023-09-08T11:27:52;100520.63;;;24.90;100.00
64253;BME280;50592;52.958;-7.470;2023-09-08T11:30:17;100510.25;;;24.99;100.00
64253;BME280;50592;52.958;-7.470;2023-09-08T11:32:43;100508.47;;;25.05;100.00
64253;BME280;50592;52.958;-7.470;2023-09-08T11:35:10;100507.16;;;25.07;100.00
64253;BME280;50592;52.958;-7.470;2023-09-08T11:37:37;100500.53;;;25.15;100.00
64253;BME280;50592;52.958;-7.470;2023-09-08T11:40:04;100506.97;;;25.26;100.00
64253;BME280;50592;52.958;-7.470;2023-09-08T11:42:41;100497.91;;;25.32;100.00
64253;BME280;50592;52.958;-7.470;2023-09-08T11:45:13;100502.34;;;25.38;100.00
64253;BME280;50592;52.958;-7.470;2023-09-08T11:47:41;100493.75;;;25.42;100.00
64253;BME280;50592;52.958;-7.470;2023-09-08T11:50:12;100487.13;;;25.49;100.00
64253;BME280;50592;52.958;-7.470;2023-09-08T11:52:48;100493.78;;;25.59;100.00
64253;BME280;50592;52.958;-7.470;2023-09-08T11:55:15;100496.34;;;25.66;100.00
64253;BME280;50592;52.958;-7.470;2023-09-08T11:57:42;100489.97;;;25.72;100.00
64253;BME280;50592;52.958;-7.470;2023-09-08T12:00:10;100491.19;;;25.81;100.00
64253;BME280;50592;52.958;-7.470;2023-09-08T12:02:41;100494.53;;;25.88;100.00
64253;BME280;50592;52.958;-7.470;2023-09-08T12:05:20;100491.53;;;26.02;100.00
64253;BME280;50592;52.958;-7.470;2023-09-08T12:07:47;100487.47;;;26.05;100.00
64253;BME280;50592;52.958;-7.470;2023-09-08T12:10:14;100482.25;;;26.15;100.00
64253;BME280;50592;52.958;-7.470;2023-09-08T12:12:50;100481.00;;;26.23;100.00
64253;BME280;50592;52.958;-7.470;2023-09-08T12:17:58;100490.91;;;26.34;100.00
64253;BME280;50592;52.958;-7.470;2023-09-08T12:20:24;100485.66;;;26.45;100.00
64253;BME280;50592;52.958;-7.470;2023-09-08T12:22:50;100482.00;;;26.56;100.00
64253;BME280;50592;52.958;-7.470;2023-09-08T12:25:17;100485.00;;;26.60;100.00
64253;BME280;50592;52.958;-7.470;2023-09-08T12:27:44;100486.25;;;26.69;100.00
64253;BME280;50592;52.958;-7.470;2023-09-08T12:30:16;100482.00;;;26.79;100.00
64253;BME280;50592;52.958;-7.470;2023-09-08T12:32:42;100474.13;;;26.77;100.00
64253;BME280;50592;52.958;-7.470;2023-09-08T12:35:10;100478.22;;;26.80;100.00
64253;BME280;50592;52.958;-7.470;2023-09-08T12:37:38;100481.28;;;26.88;100.00